createdAt,value
2023-01-08T00:01:11.948Z,5.80
2023-01-08T00:03:39.617Z,5.10
2023-01-08T00:06:09.214Z,5.68
2023-01-08T00:08:35.690Z,5.35
2023-01-08T00:11:02.177Z,4.95
2023-01-08T00:13:29.458Z,4.82
2023-01-08T00:15:56.034Z,5.43
2023-01-08T00:18:22.576Z,5.15
2023-01-08T00:20:49.094Z,5.18
2023-01-08T00:23:17.817Z,6.15
2023-01-08T00:25:44.732Z,5.50
2023-01-08T00:28:11.461Z,6.05
2023-01-08T00:30:38.185Z,5.30
2023-01-08T00:33:04.734Z,5.78
2023-01-08T00:35:31.260Z,5.22
2023-01-08T00:37:57.757Z,5.45
2023-01-08T00:40:24.254Z,5.13
2023-01-08T00:42:50.691Z,4.97
2023-01-08T00:45:17.167Z,5.03
2023-01-08T00:47:43.673Z,4.97
2023-01-08T00:50:10.924Z,5.07
2023-01-08T00:52:37.334Z,4.50
2023-01-08T00:55:04.051Z,5.18
2023-01-08T00:57:37.943Z,5.10
2023-01-08T01:00:07.126Z,5.55
2023-01-08T01:02:35.351Z,4.97
2023-01-08T01:05:02.145Z,5.10
2023-01-08T01:07:28.569Z,5.47
2023-01-08T01:09:55.066Z,4.85
2023-01-08T01:12:21.598Z,4.55
2023-01-08T01:14:48.104Z,5.22
2023-01-08T01:17:14.536Z,5.00
2023-01-08T01:19:41.351Z,4.55
2023-01-08T01:22:07.824Z,4.03
2023-01-08T01:24:34.557Z,4.82
2023-01-08T01:27:00.993Z,4.93
2023-01-08T01:29:27.549Z,4.65
2023-01-08T01:31:57.607Z,4.78
2023-01-08T01:34:24.389Z,4.60
2023-01-08T01:36:50.851Z,4.55
2023-01-08T01:39:17.371Z,4.90
2023-01-08T01:41:45.571Z,4.40
2023-01-08T01:44:41.841Z,5.22
2023-01-08T01:47:25.648Z,5.10
2023-01-08T01:50:02.422Z,4.63
2023-01-08T01:52:33.058Z,4.90
2023-01-08T01:55:01.839Z,4.97
2023-01-08T01:57:32.991Z,4.65
2023-01-08T02:00:01.126Z,4.65
2023-01-08T02:02:27.742Z,4.18
2023-01-08T02:04:54.255Z,5.38
2023-01-08T02:07:49.101Z,4.97
2023-01-08T02:10:47.389Z,4.28
2023-01-08T02:13:42.522Z,5.20
2023-01-08T02:16:16.039Z,4.20
2023-01-08T02:33:35.741Z,4.70
2023-01-08T02:36:31.977Z,4.72
2023-01-08T02:39:07.728Z,4.55
2023-01-08T02:41:56.991Z,3.92
2023-01-08T02:44:35.686Z,4.38
2023-01-08T02:47:06.525Z,3.97
2023-01-08T02:49:39.020Z,3.70
2023-01-08T02:52:08.401Z,4.88
2023-01-08T02:54:36.673Z,4.20
2023-01-08T02:57:08.179Z,4.03
2023-01-08T02:59:36.074Z,3.78
2023-01-08T03:02:04.362Z,4.05
2023-01-08T03:04:37.874Z,3.95
2023-01-08T03:07:04.438Z,3.80
2023-01-08T03:09:31.020Z,4.13
2023-01-08T03:12:11.293Z,4.45
2023-01-08T03:14:46.542Z,4.22
2023-01-08T03:17:31.922Z,4.40
2023-01-08T03:20:25.071Z,4.13
2023-01-08T03:22:56.150Z,4.28
2023-01-08T03:25:26.201Z,4.15
2023-01-08T03:27:57.770Z,3.63
2023-01-08T03:30:24.872Z,3.42
2023-01-08T03:32:53.037Z,3.83
2023-01-08T03:35:22.768Z,3.50
2023-01-08T03:38:00.374Z,4.00
2023-01-08T03:40:35.154Z,4.10
2023-01-08T03:43:01.789Z,4.30
2023-01-08T03:45:31.537Z,3.92
2023-01-08T03:47:59.854Z,4.00
2023-01-08T03:50:31.075Z,4.40
2023-01-08T03:53:00.601Z,4.05
2023-01-08T03:55:27.367Z,4.22
2023-01-08T03:57:53.794Z,4.05
2023-01-08T04:00:20.566Z,4.00
2023-01-08T04:02:47.054Z,3.97
2023-01-08T04:05:13.535Z,4.18
2023-01-08T04:07:40.046Z,3.67
2023-01-08T04:10:06.979Z,3.47
2023-01-08T04:12:33.481Z,3.20
2023-01-08T04:15:00.123Z,3.75
2023-01-08T04:17:26.643Z,3.50
2023-01-08T04:19:53.109Z,3.70
2023-01-08T04:22:19.554Z,3.08
2023-01-08T04:24:46.004Z,3.30
2023-01-08T04:27:12.489Z,3.78
2023-01-08T04:29:38.938Z,3.70
2023-01-08T04:32:05.391Z,3.47
2023-01-08T04:34:31.817Z,3.22
2023-01-08T04:36:59.005Z,2.80
2023-01-08T04:39:25.477Z,3.50
2023-01-08T04:41:51.956Z,2.92
2023-01-08T04:44:18.411Z,2.97
2023-01-08T04:46:44.830Z,2.95
2023-01-08T04:49:12.357Z,3.13
2023-01-08T04:51:38.957Z,2.85
2023-01-08T04:54:05.532Z,2.80
2023-01-08T04:56:32.119Z,2.83
2023-01-08T04:58:58.924Z,3.38
2023-01-08T05:01:27.590Z,3.55
2023-01-08T05:03:56.292Z,3.33
2023-01-08T05:06:23.087Z,3.25
2023-01-08T05:08:49.621Z,3.55
2023-01-08T05:11:16.050Z,3.13
2023-01-08T05:13:42.591Z,2.75
2023-01-08T05:16:09.267Z,2.80
2023-01-08T05:18:35.784Z,2.97
2023-01-08T05:21:03.158Z,3.10
2023-01-08T05:23:30.724Z,3.20
2023-01-08T05:26:01.134Z,3.00
2023-01-08T05:28:28.253Z,3.17
2023-01-08T05:30:55.024Z,2.97
2023-01-08T05:33:22.215Z,2.40
2023-01-08T05:35:48.895Z,2.47
2023-01-08T05:38:15.707Z,2.08
2023-01-08T05:40:42.110Z,2.47
2023-01-08T05:43:08.745Z,1.58
2023-01-08T05:45:35.319Z,1.80
2023-01-08T05:48:06.664Z,1.70
2023-01-08T05:50:34.149Z,1.42
2023-01-08T05:53:00.917Z,1.40
2023-01-08T05:55:27.430Z,1.50
2023-01-08T05:57:53.869Z,1.52
2023-01-08T06:00:20.460Z,1.38
2023-01-08T06:02:48.395Z,1.60
2023-01-08T06:05:15.407Z,1.50
2023-01-08T06:07:41.965Z,1.20
2023-01-08T06:10:08.850Z,1.40
2023-01-08T06:12:35.355Z,1.25
2023-01-08T06:15:02.000Z,1.00
2023-01-08T06:17:28.407Z,0.88
2023-01-08T06:19:54.821Z,1.25
2023-01-08T06:22:21.276Z,0.93
2023-01-08T06:24:47.774Z,1.10
2023-01-08T06:27:14.348Z,1.13
2023-01-08T06:29:40.787Z,1.27
2023-01-08T06:32:07.315Z,1.10
2023-01-08T06:34:33.769Z,1.35
2023-01-08T06:37:00.230Z,1.08
2023-01-08T06:39:26.906Z,1.33
2023-01-08T06:41:53.395Z,1.30
2023-01-08T06:44:20.081Z,1.00
2023-01-08T06:46:46.886Z,1.20
2023-01-08T06:49:14.820Z,1.00
2023-01-08T06:51:41.323Z,1.00
2023-01-08T06:54:07.829Z,0.90
2023-01-08T06:56:45.359Z,0.75
2023-01-08T06:59:18.978Z,0.80
2023-01-08T07:01:45.522Z,0.90
2023-01-08T07:04:12.023Z,0.63
2023-01-08T07:06:38.491Z,0.82
2023-01-08T07:09:04.973Z,0.90
2023-01-08T07:11:31.405Z,0.90
2023-01-08T07:13:57.926Z,0.80
2023-01-08T07:16:24.668Z,1.05
2023-01-08T07:18:51.202Z,0.75
2023-01-08T07:21:17.701Z,0.70
2023-01-08T07:23:45.582Z,0.98
2023-01-08T07:26:12.113Z,0.90
2023-01-08T07:28:38.593Z,0.88
2023-01-08T07:31:06.272Z,0.90
2023-01-08T07:33:33.187Z,0.90
2023-01-08T07:35:59.746Z,0.93
2023-01-08T07:38:26.503Z,0.90
2023-01-08T07:40:53.593Z,0.98
2023-01-08T07:43:20.522Z,0.70
2023-01-08T07:45:47.028Z,0.90
2023-01-08T07:48:16.562Z,0.70
2023-01-08T07:50:44.252Z,0.68
2023-01-08T07:53:12.707Z,0.70
2023-01-08T07:55:39.312Z,0.98
2023-01-08T07:58:10.112Z,0.75
2023-01-08T08:00:36.639Z,1.00
2023-01-08T08:03:07.412Z,1.00
2023-01-08T08:05:34.738Z,0.97
2023-01-08T08:08:01.434Z,0.80
2023-01-08T08:10:28.361Z,0.93
2023-01-08T08:12:54.860Z,0.80
2023-01-08T08:15:21.385Z,0.60
2023-01-08T08:17:48.771Z,0.80
2023-01-08T08:20:16.123Z,0.73
2023-01-08T08:22:42.900Z,0.70
2023-01-08T08:25:09.736Z,0.98
2023-01-08T08:27:36.296Z,0.95
2023-01-08T08:30:03.957Z,0.80
2023-01-08T08:32:30.468Z,0.70
2023-01-08T08:34:56.931Z,0.70
2023-01-08T08:37:23.365Z,1.02
2023-01-08T08:39:49.770Z,0.80
2023-01-08T08:42:16.351Z,0.90
2023-01-08T08:44:43.192Z,0.80
2023-01-08T08:47:10.338Z,0.50
2023-01-08T08:49:36.890Z,0.90
2023-01-08T08:52:04.413Z,0.50
2023-01-08T08:54:31.206Z,0.60
2023-01-08T08:56:57.661Z,0.60
2023-01-08T08:59:24.291Z,0.60
2023-01-08T09:01:50.859Z,0.80
2023-01-08T09:04:17.496Z,0.68
2023-01-08T09:06:43.890Z,0.82
2023-01-08T09:09:10.385Z,0.77
2023-01-08T09:11:36.985Z,0.82
2023-01-08T09:14:03.443Z,0.90
2023-01-08T09:16:29.941Z,1.10
2023-01-08T09:18:56.533Z,1.23
2023-01-08T09:21:22.998Z,0.70
2023-01-08T09:23:49.810Z,0.90
2023-01-08T09:26:16.273Z,1.00
2023-01-08T09:28:42.754Z,1.20
2023-01-08T09:31:09.211Z,0.90
2023-01-08T09:33:35.799Z,0.90
2023-01-08T09:36:02.263Z,2.00
2023-01-08T09:38:30.016Z,2.00
2023-01-08T09:41:09.438Z,2.10
2023-01-08T09:43:39.069Z,1.35
2023-01-08T09:46:07.676Z,1.80
2023-01-08T09:48:39.902Z,1.23
2023-01-08T09:51:13.415Z,1.55
2023-01-08T09:53:40.341Z,5.13
2023-01-08T09:56:15.765Z,3.88
2023-01-08T09:58:50.988Z,1.40
2023-01-08T10:01:27.363Z,1.27
2023-01-08T10:04:00.349Z,0.82
2023-01-08T10:06:26.770Z,1.23
2023-01-08T10:08:53.337Z,3.72
2023-01-08T10:11:20.747Z,4.97
2023-01-08T10:13:54.379Z,0.82
2023-01-08T10:16:30.926Z,1.17
2023-01-08T10:18:59.715Z,2.70
2023-01-08T10:21:32.979Z,4.43
2023-01-08T10:23:59.449Z,2.00
2023-01-08T10:26:36.458Z,4.03
2023-01-08T10:29:20.885Z,1.15
2023-01-08T10:31:53.607Z,3.33
2023-01-08T10:34:42.668Z,2.80
2023-01-08T10:37:23.677Z,1.30
2023-01-08T10:39:51.689Z,1.40
2023-01-08T10:42:20.769Z,1.10
2023-01-08T10:45:00.787Z,2.72
2023-01-08T10:47:30.744Z,1.92
2023-01-08T10:49:58.787Z,1.40
2023-01-08T10:52:34.346Z,1.20
2023-01-08T10:55:32.984Z,1.50
2023-01-08T10:58:02.629Z,1.05
2023-01-08T11:00:34.363Z,1.25
2023-01-08T11:05:43.045Z,2.25
2023-01-08T11:08:17.800Z,1.45
2023-01-08T11:10:54.178Z,2.05
2023-01-08T11:13:20.709Z,1.38
2023-01-08T11:15:56.874Z,0.88
2023-01-08T11:18:27.019Z,1.55
2023-01-08T11:21:06.040Z,1.35
2023-01-08T11:23:32.612Z,1.10
2023-01-08T11:26:07.619Z,1.00
2023-01-08T11:29:15.020Z,1.60
2023-01-08T11:32:18.980Z,1.40
2023-01-08T11:35:00.867Z,1.70
2023-01-08T11:39:55.621Z,0.77
2023-01-08T11:42:56.054Z,2.20
2023-01-08T11:45:36.696Z,0.93
2023-01-08T11:48:38.745Z,0.80
2023-01-08T11:53:41.271Z,0.65
2023-01-08T11:56:10.448Z,0.70
2023-01-08T11:59:14.239Z,0.65
2023-01-08T12:01:55.996Z,0.60
2023-01-08T12:07:19.036Z,0.50
2023-01-08T12:10:05.103Z,0.50
2023-01-08T12:12:50.859Z,0.60
2023-01-08T12:15:26.458Z,0.50
2023-01-08T12:18:14.430Z,0.70
2023-01-08T12:20:50.577Z,0.90
2023-01-08T12:23:56.111Z,0.75
2023-01-08T12:26:41.429Z,0.60
2023-01-08T12:29:42.320Z,2.10
2023-01-08T12:32:29.231Z,3.80
2023-01-08T12:35:10.928Z,1.50
2023-01-08T12:37:55.209Z,3.55
2023-01-08T12:40:32.997Z,1.98
2023-01-08T12:43:05.082Z,2.60
2023-01-08T12:45:43.224Z,0.95
2023-01-08T12:48:19.508Z,3.13
2023-01-08T12:51:30.363Z,0.88
2023-01-08T12:54:23.324Z,1.00
2023-01-08T12:57:01.931Z,1.20
2023-01-08T12:59:53.050Z,0.70
2023-01-08T13:02:47.563Z,2.03
2023-01-08T13:05:31.096Z,0.70
2023-01-08T13:08:00.222Z,1.40
2023-01-08T13:10:39.103Z,0.43
2023-01-08T13:13:08.253Z,0.57
2023-01-08T13:15:36.091Z,1.10
2023-01-08T13:18:18.910Z,0.40
2023-01-08T13:20:59.619Z,0.40
2023-01-08T13:23:28.983Z,0.68
2023-01-08T13:25:57.975Z,0.68
2023-01-08T13:28:34.884Z,0.50
2023-01-08T13:31:19.691Z,0.40
2023-01-08T13:33:47.793Z,0.40
2023-01-08T13:36:26.113Z,0.65
2023-01-08T13:39:11.704Z,0.55
2023-01-08T13:41:42.689Z,0.40
2023-01-08T13:44:29.060Z,0.60
2023-01-08T13:46:58.553Z,0.60
2023-01-08T13:49:40.991Z,0.60
2023-01-08T13:52:29.066Z,0.80
2023-01-08T13:54:56.058Z,0.90
2023-01-08T13:57:23.587Z,0.60
2023-01-08T13:59:55.144Z,1.25
2023-01-08T14:02:24.834Z,1.00
2023-01-08T14:04:51.923Z,0.80
2023-01-08T14:07:18.885Z,0.93
2023-01-08T14:09:45.343Z,0.88
2023-01-08T14:12:20.248Z,0.70
2023-01-08T14:14:50.598Z,0.90
2023-01-08T14:17:18.931Z,0.75
2023-01-08T14:19:46.113Z,0.90
2023-01-08T14:22:19.163Z,0.80
2023-01-08T14:24:49.648Z,0.90
2023-01-08T14:27:28.473Z,0.80
2023-01-08T14:29:55.772Z,0.80
2023-01-08T14:32:25.959Z,0.55
2023-01-08T14:34:54.503Z,0.80
2023-01-08T14:37:21.052Z,0.75
2023-01-08T14:39:55.137Z,0.77
2023-01-08T14:42:42.632Z,0.80
2023-01-08T14:45:20.750Z,0.82
2023-01-08T14:47:53.096Z,0.70
2023-01-08T14:50:26.570Z,0.80
2023-01-08T14:52:57.448Z,0.70
2023-01-08T14:55:25.197Z,0.90
2023-01-08T14:57:54.551Z,0.75
2023-01-08T15:00:27.871Z,0.50
2023-01-08T15:02:54.536Z,0.98
2023-01-08T15:05:27.892Z,0.90
2023-01-08T15:08:22.902Z,0.90
2023-01-08T15:11:08.908Z,0.55
2023-01-08T15:13:38.143Z,0.70
2023-01-08T15:16:28.178Z,0.45
2023-01-08T15:19:05.329Z,0.85
2023-01-08T15:21:32.616Z,0.60
2023-01-08T15:23:59.976Z,0.60
2023-01-08T15:26:27.081Z,0.70
2023-01-08T15:29:00.873Z,0.75
2023-01-08T15:31:33.402Z,0.70
2023-01-08T15:34:00.812Z,0.80
2023-01-08T15:36:27.488Z,0.63
2023-01-08T15:38:54.076Z,0.90
2023-01-08T15:41:41.082Z,0.80
2023-01-08T15:44:09.579Z,0.70
2023-01-08T15:46:36.095Z,0.80
2023-01-08T15:49:02.586Z,1.00
2023-01-08T15:51:33.249Z,0.98
2023-01-08T15:54:00.476Z,0.80
2023-01-08T15:56:27.287Z,1.10
2023-01-08T15:58:53.736Z,1.27
2023-01-08T16:01:20.514Z,1.15
2023-01-08T16:03:48.342Z,1.15
2023-01-08T16:06:14.826Z,1.00
2023-01-08T16:08:45.795Z,0.95
2023-01-08T16:11:17.651Z,1.27
2023-01-08T16:13:44.294Z,1.10
2023-01-08T16:16:12.712Z,1.33
2023-01-08T16:18:39.368Z,1.20
2023-01-08T16:21:07.324Z,1.55
2023-01-08T16:23:35.626Z,2.03
2023-01-08T16:26:11.780Z,1.60
2023-01-08T16:28:38.392Z,1.35
2023-01-08T16:31:05.563Z,1.40
2023-01-08T16:33:32.055Z,1.40
2023-01-08T16:36:00.412Z,1.67
2023-01-08T16:38:27.162Z,1.77
2023-01-08T16:40:54.421Z,1.25
2023-01-08T16:43:20.861Z,1.45
2023-01-08T16:45:48.240Z,1.80
2023-01-08T16:48:15.289Z,1.70
2023-01-08T16:50:43.211Z,1.48
2023-01-08T16:53:10.167Z,1.50
2023-01-08T16:55:37.869Z,1.70
2023-01-08T16:58:05.103Z,1.85
2023-01-08T17:00:31.975Z,1.70
2023-01-08T17:02:58.608Z,1.77
2023-01-08T17:05:25.218Z,1.58
2023-01-08T17:07:53.119Z,1.80
2023-01-08T17:10:21.641Z,1.70
2023-01-08T17:12:48.215Z,1.65
2023-01-08T17:15:15.090Z,2.05
2023-01-08T17:17:41.860Z,1.80
2023-01-08T17:20:09.369Z,2.03
2023-01-08T17:22:35.762Z,1.83
2023-01-08T17:25:02.254Z,2.10
2023-01-08T17:27:28.803Z,1.90
2023-01-08T17:29:55.315Z,2.00
2023-01-08T17:32:22.074Z,2.25
2023-01-08T17:34:48.477Z,2.22
2023-01-08T17:37:15.427Z,2.20
2023-01-08T17:39:43.625Z,2.13
2023-01-08T17:42:25.531Z,1.75
2023-01-08T17:47:19.776Z,1.60
2023-01-08T17:49:54.305Z,1.40
2023-01-08T17:52:22.964Z,1.83
2023-01-08T17:54:52.745Z,1.50
2023-01-08T17:57:21.047Z,1.80
2023-01-08T17:59:48.496Z,1.75
2023-01-08T18:02:16.520Z,1.65
2023-01-08T18:04:45.352Z,1.77
2023-01-08T18:07:11.856Z,2.03
2023-01-08T18:09:38.579Z,1.70
2023-01-08T18:12:05.221Z,1.90
2023-01-08T18:14:31.693Z,1.80
2023-01-08T18:16:58.093Z,2.20
2023-01-08T18:19:26.129Z,2.28
2023-01-08T18:21:52.611Z,2.13
2023-01-08T18:24:19.150Z,2.72
2023-01-08T18:26:46.523Z,2.03
2023-01-08T18:29:13.258Z,2.00
2023-01-08T18:31:40.222Z,2.55
2023-01-08T18:34:08.813Z,2.33
2023-01-08T18:36:36.613Z,2.00
2023-01-08T18:39:03.565Z,2.00
2023-01-08T18:41:48.412Z,2.60
2023-01-08T18:44:14.925Z,2.20
2023-01-08T18:46:41.456Z,2.42
2023-01-08T18:49:08.017Z,2.30
2023-01-08T18:51:34.499Z,2.63
2023-01-08T18:54:00.949Z,2.58
2023-01-08T18:56:31.147Z,2.47
2023-01-08T18:58:58.128Z,3.85
2023-01-08T19:01:24.989Z,4.25
2023-01-08T19:03:51.851Z,5.18
2023-01-08T19:06:18.492Z,6.50
2023-01-08T19:08:45.234Z,5.90
2023-01-08T19:11:12.258Z,5.32
2023-01-08T19:13:39.093Z,3.30
2023-01-08T19:16:07.398Z,3.78
2023-01-08T19:18:34.522Z,4.30
2023-01-08T19:21:01.229Z,3.13
2023-01-08T19:23:28.286Z,3.97
2023-01-08T19:25:55.108Z,4.63
2023-01-08T19:28:21.557Z,3.40
2023-01-08T19:30:58.517Z,4.18
2023-01-08T19:33:25.370Z,4.18
2023-01-08T19:35:52.144Z,2.70
2023-01-08T19:38:19.262Z,3.78
2023-01-08T19:40:45.746Z,2.58
2023-01-08T19:43:31.613Z,7.53
2023-01-08T19:46:05.463Z,5.07
2023-01-08T19:48:32.470Z,7.97
2023-01-08T19:50:59.564Z,5.10
2023-01-08T19:53:26.025Z,4.63
2023-01-08T19:55:52.481Z,8.50
2023-01-08T19:58:20.372Z,3.55
2023-01-08T20:00:46.905Z,4.40
2023-01-08T20:03:13.674Z,5.13
2023-01-08T20:05:41.495Z,4.85
2023-01-08T20:08:07.975Z,5.85
2023-01-08T20:10:34.431Z,5.00
2023-01-08T20:13:00.971Z,7.75
2023-01-08T20:15:28.900Z,3.03
2023-01-08T20:17:55.626Z,5.60
2023-01-08T20:20:22.062Z,3.05
2023-01-08T20:22:48.586Z,6.05
2023-01-08T20:25:15.190Z,7.32
2023-01-08T20:27:41.651Z,3.28
2023-01-08T20:30:10.276Z,2.50
2023-01-08T20:32:37.077Z,2.70
2023-01-08T20:35:04.744Z,3.40
2023-01-08T20:37:31.463Z,3.00
2023-01-08T20:39:57.864Z,2.85
2023-01-08T20:42:33.482Z,8.52
2023-01-08T20:45:00.697Z,4.32
2023-01-08T20:47:27.294Z,2.15
2023-01-08T20:49:53.773Z,2.92
2023-01-08T20:52:20.266Z,10.02
2023-01-08T20:54:46.763Z,10.35
2023-01-08T20:57:13.377Z,5.25
2023-01-08T20:59:40.134Z,4.82
2023-01-08T21:02:07.048Z,3.05
2023-01-08T21:04:33.601Z,3.42
2023-01-08T21:07:00.232Z,4.40
2023-01-08T21:09:26.771Z,6.30
2023-01-08T21:11:53.332Z,4.53
2023-01-08T21:14:19.836Z,3.40
2023-01-08T21:16:46.405Z,2.92
2023-01-08T21:19:14.772Z,2.88
2023-01-08T21:21:41.818Z,2.72
2023-01-08T21:24:11.399Z,2.80
2023-01-08T21:26:38.934Z,4.47
2023-01-08T21:29:06.844Z,2.92
2023-01-08T21:31:35.001Z,3.40
2023-01-08T21:34:03.193Z,2.90
2023-01-08T21:36:31.549Z,4.88
2023-01-08T21:39:00.485Z,3.00
2023-01-08T21:41:47.389Z,3.05
2023-01-08T21:44:43.879Z,2.97
2023-01-08T21:47:17.082Z,3.00
2023-01-08T21:49:44.902Z,2.92
2023-01-08T21:52:29.959Z,2.78
2023-01-08T21:54:58.150Z,3.20
2023-01-08T21:57:27.582Z,2.65
2023-01-08T21:59:54.475Z,3.47
2023-01-08T22:02:23.133Z,3.53
2023-01-08T22:04:49.970Z,3.28
2023-01-08T22:07:16.610Z,3.00
2023-01-08T22:09:43.077Z,2.58
2023-01-08T22:12:09.615Z,2.40
2023-01-08T22:14:36.305Z,2.03
2023-01-08T22:17:04.060Z,2.13
2023-01-08T22:19:31.075Z,1.85
2023-01-08T22:21:57.584Z,1.65
2023-01-08T22:24:23.971Z,1.30
2023-01-08T22:26:50.450Z,1.30
2023-01-08T22:29:17.161Z,1.40
2023-01-08T22:31:44.771Z,1.40
2023-01-08T22:34:16.819Z,1.40
2023-01-08T22:36:44.130Z,2.00
2023-01-08T22:39:10.987Z,1.30
2023-01-08T22:41:37.762Z,1.10
2023-01-08T22:44:04.338Z,1.08
2023-01-08T22:46:31.673Z,1.13
2023-01-08T22:48:58.259Z,1.30
2023-01-08T22:51:27.791Z,1.48
2023-01-08T22:53:58.906Z,1.35
2023-01-08T22:56:26.317Z,2.00
2023-01-08T22:58:53.354Z,1.90
2023-01-08T23:01:25.170Z,2.47
2023-01-08T23:03:53.636Z,2.20
2023-01-08T23:06:21.969Z,2.40
2023-01-08T23:08:49.070Z,2.08
2023-01-08T23:11:17.835Z,2.90
2023-01-08T23:13:44.909Z,2.70
2023-01-08T23:16:14.431Z,2.55
2023-01-08T23:18:41.324Z,2.83
2023-01-08T23:21:14.611Z,3.33
2023-01-08T23:23:41.244Z,3.10
2023-01-08T23:26:18.498Z,3.15
2023-01-08T23:28:45.952Z,3.20
2023-01-08T23:31:16.330Z,2.95
2023-01-08T23:33:42.900Z,2.95
2023-01-08T23:36:10.278Z,3.35
2023-01-08T23:38:36.695Z,2.70
2023-01-08T23:41:06.521Z,3.22
2023-01-08T23:43:33.113Z,3.15
2023-01-08T23:46:06.376Z,2.75
2023-01-08T23:48:33.681Z,2.58
2023-01-08T23:51:00.209Z,3.10
2023-01-08T23:53:27.377Z,3.25
2023-01-08T23:55:53.957Z,3.83
2023-01-08T23:58:20.719Z,3.00
